Edgar B Speer — WQZ9670 — position and weather

sailwx.info

Track history (hours):
 
Tides and Currents Weather Stations Pressure Air Temp Water Temp Dewpoint Dewpoint Depression Visibility Wind Speed Wind Dir Waves Ship Positions

Edgar B Speer

Owner: Great Lakes Fleet, Inc, DULUTH, MN. More information available from US FCC via Universal Licensing System and Coast Guard Vessel Documentation Center.

Last reported at 2014-Nov-24 13:14 UTC. Time now 2014-Nov-26 20:20 UTC.
Position N 45°56' W 083°54'.

Length 306 m; draft 8 m.

Type: Cargo ship. MMSI: 366971330.

Date/timePositionNaut miles runAvg speedWind from/ knotsBaromVisibWave heightAir tempDewpointWater temp
2014-Nov-24 13:14N 45°56' W 083°54'913.2
2014-Nov-24 12:33N 45°52' W 084°05'1312.8
2014-Nov-24 11:33N 45°51' W 084°23'1212.2
2014-Nov-24 10:33N 45°49' W 084°41'1212.1
2014-Nov-24 09:33N 45°50' W 084°58'9 8.6
2014-Nov-24 08:33N 45°45' W 085°09'1312.9
2014-Nov-24 07:33N 45°35' W 085°20'1313.4
2014-Nov-24 06:33N 45°24' W 085°32'1313.1
2014-Nov-24 05:33N 45°14' W 085°43'1313.1
2014-Nov-24 04:33N 45°03' W 085°54'1613.0
2014-Nov-24 03:18N 44°54' W 086°13'  
Track history (hours):
 
Tides and Currents Weather Stations Pressure Air Temp Water Temp Dewpoint Dewpoint Depression Visibility Wind Speed Wind Dir Waves Ship Positions

Edgar B Speer

Owner: Great Lakes Fleet, Inc, DULUTH, MN. More information available from US FCC via Universal Licensing System and Coast Guard Vessel Documentation Center.

Last reported at 2014-Nov-24 13:14 UTC. Time now 2014-Nov-26 20:20 UTC.
Position N 45°56' W 083°54'.

Length 306 m; draft 8 m.

Type: Cargo ship. MMSI: 366971330.

Date/timePositionNaut miles runAvg speedWind from/ knotsBaromVisibWave heightAir tempDewpointWater temp
2014-Nov-24 13:14N 45°56' W 083°54'913.2
2014-Nov-24 12:33N 45°52' W 084°05'1312.8
2014-Nov-24 11:33N 45°51' W 084°23'1212.2
2014-Nov-24 10:33N 45°49' W 084°41'1212.1
2014-Nov-24 09:33N 45°50' W 084°58'9 8.6
2014-Nov-24 08:33N 45°45' W 085°09'1312.9
2014-Nov-24 07:33N 45°35' W 085°20'1313.4
2014-Nov-24 06:33N 45°24' W 085°32'1313.1
2014-Nov-24 05:33N 45°14' W 085°43'1313.1
2014-Nov-24 04:33N 45°03' W 085°54'1613.0
2014-Nov-24 03:18N 44°54' W 086°13'  

Dump ship's entire track history